createdAt,value
2016-08-22T00:00:15.882Z,14.78
2016-08-22T00:02:15.497Z,14.86
2016-08-22T00:03:17.960Z,14.91
2016-08-22T00:04:29.602Z,14.91
2016-08-22T00:07:16.990Z,14.91
2016-08-22T00:10:17.229Z,14.94
2016-08-22T00:15:24.106Z,14.86
2016-08-22T00:16:26.848Z,14.91
2016-08-22T00:19:20.920Z,14.95
2016-08-22T00:20:13.215Z,14.95
2016-08-22T00:21:17.252Z,14.92
2016-08-22T00:22:17.647Z,14.92
2016-08-22T00:23:12.331Z,14.86
2016-08-22T00:25:16.643Z,14.79
2016-08-22T00:26:19.793Z,14.84
2016-08-22T00:28:19.317Z,14.93
2016-08-22T00:30:18.494Z,14.99
2016-08-22T00:31:16.657Z,15.01
2016-08-22T00:33:12.580Z,15.06
2016-08-22T00:34:21.880Z,15.04
2016-08-22T00:35:23.007Z,15.03
2016-08-22T00:36:14.945Z,15.05
2016-08-22T00:37:18.516Z,15.02
2016-08-22T00:38:22.499Z,15.01
2016-08-22T00:39:32.107Z,14.99
2016-08-22T00:40:28.257Z,15.00
2016-08-22T00:42:17.745Z,14.95
2016-08-22T00:44:18.250Z,15.02
2016-08-22T00:45:11.602Z,15.02
2016-08-22T00:47:16.382Z,14.96
2016-08-22T00:49:17.578Z,14.91
2016-08-22T00:50:13.317Z,14.89
2016-08-22T00:53:16.750Z,14.92
2016-08-22T00:54:17.271Z,14.94
2016-08-22T00:55:13.252Z,14.94
2016-08-22T00:56:21.151Z,15.00
2016-08-22T00:57:14.783Z,15.00
2016-08-22T00:58:14.171Z,15.01
2016-08-22T00:59:11.538Z,14.98
2016-08-22T01:00:18.844Z,14.99
2016-08-22T01:02:13.020Z,14.96
2016-08-22T01:03:12.996Z,15.01
2016-08-22T01:04:16.541Z,15.01
2016-08-22T01:06:19.866Z,14.90
2016-08-22T01:07:19.607Z,14.94
2016-08-22T01:09:23.071Z,14.96
2016-08-22T01:10:19.586Z,14.93
2016-08-22T01:13:17.275Z,14.92
2016-08-22T01:14:16.708Z,14.91
2016-08-22T01:15:17.789Z,14.93
2016-08-22T01:17:13.446Z,14.85
2016-08-22T01:18:21.680Z,14.81
2016-08-22T01:20:16.454Z,14.88
2016-08-22T01:21:29.875Z,14.89
2016-08-22T01:22:12.541Z,14.92
2016-08-22T01:23:26.576Z,14.92
2016-08-22T01:24:17.818Z,14.91
2016-08-22T01:25:19.969Z,14.90
2016-08-22T01:30:15.785Z,14.85
2016-08-22T01:31:38.707Z,14.80
2016-08-22T01:33:20.945Z,14.77
2016-08-22T01:35:12.596Z,14.74
2016-08-22T01:36:21.398Z,14.75
2016-08-22T01:38:15.892Z,14.81
2016-08-22T01:39:22.093Z,14.77
2016-08-22T01:40:13.846Z,14.79
2016-08-22T01:41:17.476Z,14.84
2016-08-22T01:44:17.178Z,14.77
2016-08-22T01:47:12.804Z,14.78
2016-08-22T01:49:12.423Z,14.61
2016-08-22T01:50:21.684Z,14.66
2016-08-22T01:52:15.348Z,14.70
2016-08-22T01:53:20.673Z,14.74
2016-08-22T01:54:12.882Z,14.72
2016-08-22T01:55:17.053Z,14.74
2016-08-22T01:56:23.205Z,14.71
2016-08-22T01:57:13.077Z,14.71
2016-08-22T01:59:11.563Z,14.69
2016-08-22T02:01:22.721Z,14.68
2016-08-22T02:02:18.784Z,14.70
2016-08-22T02:03:18.932Z,14.73
2016-08-22T02:04:16.699Z,14.70
2016-08-22T02:05:20.970Z,14.57
2016-08-22T02:08:13.092Z,14.60
2016-08-22T02:09:21.325Z,14.57
2016-08-22T02:10:17.503Z,14.58
2016-08-22T02:11:22.162Z,14.57
2016-08-22T02:13:22.497Z,14.54
2016-08-22T02:14:16.075Z,14.60
2016-08-22T02:15:29.983Z,14.60
2016-08-22T02:16:14.674Z,14.55
2016-08-22T02:17:19.864Z,14.54
2016-08-22T02:18:12.939Z,14.59
2016-08-22T02:20:12.863Z,14.65
2016-08-22T02:21:15.038Z,14.66
2016-08-22T02:24:14.179Z,14.59
2016-08-22T02:25:30.930Z,14.58
2016-08-22T02:26:18.004Z,14.61
2016-08-22T02:27:24.923Z,14.52
2016-08-22T02:28:22.279Z,14.49
2016-08-22T02:29:19.241Z,14.48
2016-08-22T02:30:21.923Z,14.51
2016-08-22T02:32:27.635Z,14.60
2016-08-22T02:33:13.269Z,14.58
2016-08-22T02:35:21.988Z,14.64
2016-08-22T02:36:22.014Z,14.67
2016-08-22T02:37:22.202Z,14.66
2016-08-22T02:39:19.551Z,14.55
2016-08-22T02:40:20.837Z,14.58
2016-08-22T02:43:17.942Z,14.68
2016-08-22T02:44:17.053Z,14.61
2016-08-22T02:46:14.651Z,14.63
2016-08-22T02:47:14.907Z,14.62
2016-08-22T02:49:19.244Z,14.69
2016-08-22T02:50:17.123Z,14.68
2016-08-22T02:51:22.242Z,14.69
2016-08-22T02:52:22.241Z,14.72
2016-08-22T02:53:14.937Z,14.63
2016-08-22T02:54:28.668Z,14.57
2016-08-22T02:55:21.310Z,14.64
2016-08-22T02:56:13.397Z,14.58
2016-08-22T02:57:20.299Z,14.54
2016-08-22T02:58:16.619Z,14.54
2016-08-22T02:59:18.628Z,14.53
2016-08-22T03:00:17.256Z,14.62
2016-08-22T03:01:22.461Z,14.63
2016-08-22T03:02:12.534Z,14.58
2016-08-22T03:03:25.080Z,14.59
2016-08-22T03:04:17.568Z,14.63
2016-08-22T03:05:19.678Z,14.53
2016-08-22T03:06:12.767Z,14.54
2016-08-22T03:07:16.265Z,14.58
2016-08-22T03:09:16.460Z,14.46
2016-08-22T03:10:16.165Z,14.48
2016-08-22T03:14:17.848Z,14.29
2016-08-22T03:15:13.013Z,14.35
2016-08-22T03:19:26.870Z,14.33
2016-08-22T03:20:17.524Z,14.42
2016-08-22T03:22:17.659Z,14.40
2016-08-22T03:23:24.237Z,14.37
2016-08-22T03:24:12.834Z,14.41
2016-08-22T03:25:17.466Z,14.44
2016-08-22T03:27:29.199Z,14.53
2016-08-22T03:28:20.198Z,14.55
2016-08-22T03:30:18.322Z,14.47
2016-08-22T03:31:17.469Z,14.52
2016-08-22T03:32:16.615Z,14.45
2016-08-22T03:34:23.317Z,14.28
2016-08-22T03:35:18.728Z,14.29
2016-08-22T03:36:19.641Z,14.29
2016-08-22T03:37:16.286Z,14.40
2016-08-22T03:38:19.473Z,14.31
2016-08-22T03:39:14.567Z,14.34
2016-08-22T03:40:15.855Z,14.42
2016-08-22T03:42:24.576Z,14.52
2016-08-22T03:43:23.072Z,14.51
2016-08-22T03:44:23.084Z,14.44
2016-08-22T03:45:17.538Z,14.38
2016-08-22T03:46:17.265Z,14.42
2016-08-22T03:47:14.528Z,14.46
2016-08-22T03:48:17.009Z,14.50
2016-08-22T03:49:12.920Z,14.45
2016-08-22T03:50:17.707Z,14.46
2016-08-22T03:51:19.504Z,14.52
2016-08-22T03:54:22.523Z,14.39
2016-08-22T03:55:18.177Z,14.38
2016-08-22T03:56:22.175Z,14.34
2016-08-22T03:58:20.618Z,14.31
2016-08-22T03:59:28.905Z,14.38
2016-08-22T04:01:13.378Z,14.48
2016-08-22T04:02:18.028Z,14.42
2016-08-22T04:03:21.597Z,14.43
2016-08-22T04:04:21.809Z,14.43
2016-08-22T04:05:16.917Z,14.40
2016-08-22T04:07:52.042Z,14.32
2016-08-22T04:08:15.412Z,14.38
2016-08-22T04:09:22.658Z,14.41
2016-08-22T04:10:12.504Z,14.42
2016-08-22T04:11:14.969Z,14.47
2016-08-22T04:12:24.179Z,14.51
2016-08-22T04:13:21.897Z,14.49
2016-08-22T04:16:28.520Z,14.41
2016-08-22T04:17:17.411Z,14.28
2016-08-22T04:23:17.141Z,14.32
2016-08-22T04:24:16.876Z,14.40
2016-08-22T04:26:13.422Z,14.41
2016-08-22T04:27:30.452Z,14.40
2016-08-22T04:28:20.139Z,14.44
2016-08-22T04:29:20.681Z,14.50
2016-08-22T04:30:12.748Z,14.49
2016-08-22T04:31:17.728Z,14.46
2016-08-22T04:32:15.090Z,14.34
2016-08-22T04:35:23.778Z,14.39
2016-08-22T04:36:20.906Z,14.42
2016-08-22T04:37:28.863Z,14.44
2016-08-22T04:38:28.568Z,14.44
2016-08-22T04:40:14.036Z,14.53
2016-08-22T04:41:18.222Z,14.54
2016-08-22T04:42:14.983Z,14.52
2016-08-22T04:43:15.102Z,14.54
2016-08-22T04:44:15.819Z,14.40
2016-08-22T04:45:22.755Z,14.46
2016-08-22T04:48:19.274Z,14.47
2016-08-22T04:49:13.248Z,14.48
2016-08-22T04:50:22.408Z,14.51
2016-08-22T04:52:14.376Z,14.54
2016-08-22T04:53:13.422Z,14.57
2016-08-22T04:54:14.375Z,14.59
2016-08-22T04:55:19.739Z,14.61
2016-08-22T04:57:18.879Z,14.66
2016-08-22T04:58:17.044Z,14.58
2016-08-22T04:59:15.187Z,14.58
2016-08-22T05:02:17.096Z,14.61
2016-08-22T05:03:19.241Z,14.61
2016-08-22T05:04:16.082Z,14.52
2016-08-22T05:05:28.903Z,14.46
2016-08-22T05:07:19.003Z,14.46
2016-08-22T05:09:18.689Z,14.53
2016-08-22T05:10:13.964Z,14.36
2016-08-22T05:11:23.234Z,14.25
2016-08-22T05:12:17.344Z,14.31
2016-08-22T05:13:15.479Z,14.35
2016-08-22T05:14:14.009Z,14.30
2016-08-22T05:15:10.547Z,14.34
2016-08-22T05:16:12.977Z,14.31
2016-08-22T05:17:23.412Z,14.27
2016-08-22T05:18:13.554Z,14.26
2016-08-22T05:24:12.698Z,14.38
2016-08-22T05:25:21.978Z,14.29
2016-08-22T05:26:14.197Z,14.27
2016-08-22T05:28:20.105Z,14.14
2016-08-22T05:29:17.505Z,14.23
2016-08-22T05:30:11.671Z,14.33
2016-08-22T05:33:18.785Z,14.27
2016-08-22T05:34:18.307Z,14.24
2016-08-22T05:35:13.955Z,14.21
2016-08-22T05:36:24.756Z,14.27
2016-08-22T05:37:19.908Z,14.19
2016-08-22T05:38:13.518Z,14.26
2016-08-22T05:39:19.555Z,14.15
2016-08-22T05:40:12.365Z,14.13
2016-08-22T05:42:12.519Z,14.06
2016-08-22T05:43:13.245Z,14.05
2016-08-22T05:44:12.667Z,14.07
2016-08-22T05:45:14.064Z,14.14
2016-08-22T05:46:11.156Z,14.11
2016-08-22T05:47:18.621Z,14.19
2016-08-22T05:49:16.770Z,14.25
2016-08-22T05:50:12.995Z,14.25
2016-08-22T05:52:14.673Z,14.33
2016-08-22T05:54:14.563Z,14.35
2016-08-22T05:56:12.906Z,14.22
2016-08-22T05:57:22.795Z,14.23
2016-08-22T05:59:18.188Z,14.19
2016-08-22T06:00:14.665Z,14.15
2016-08-22T06:01:20.636Z,14.24
2016-08-22T06:02:17.473Z,14.29
2016-08-22T06:03:20.658Z,14.33
2016-08-22T06:04:17.593Z,14.30
2016-08-22T06:06:11.957Z,14.34
2016-08-22T06:07:11.981Z,14.34
2016-08-22T06:09:15.761Z,14.18
2016-08-22T06:10:23.439Z,14.26
2016-08-22T06:11:12.678Z,14.27
2016-08-22T06:12:18.577Z,14.23
2016-08-22T06:14:17.529Z,14.25
2016-08-22T06:15:20.661Z,14.29
2016-08-22T06:16:25.446Z,14.38
2016-08-22T06:19:22.201Z,14.47
2016-08-22T06:20:16.838Z,14.51
2016-08-22T06:22:29.282Z,14.54
2016-08-22T06:24:17.261Z,14.52
2016-08-22T06:25:12.525Z,14.58
2016-08-22T06:26:17.807Z,14.47
2016-08-22T06:27:13.100Z,14.55
2016-08-22T06:28:22.010Z,14.68
2016-08-22T06:29:12.107Z,14.79
2016-08-22T06:31:22.253Z,14.75
2016-08-22T06:33:30.447Z,14.76
2016-08-22T06:35:20.490Z,14.76
2016-08-22T06:36:16.655Z,14.79
2016-08-22T06:37:22.529Z,14.77
2016-08-22T06:38:15.281Z,14.80
2016-08-22T06:39:22.556Z,14.82
2016-08-22T06:40:13.529Z,14.96
2016-08-22T06:41:17.294Z,15.02
2016-08-22T06:42:23.402Z,15.05
2016-08-22T06:43:22.938Z,15.06
2016-08-22T06:44:21.132Z,15.06
2016-08-22T06:45:21.945Z,15.02
2016-08-22T06:47:37.832Z,15.10
2016-08-22T06:50:20.637Z,15.22
2016-08-22T06:51:14.285Z,15.32
2016-08-22T06:52:15.484Z,15.34
2016-08-22T06:53:16.721Z,15.31
2016-08-22T06:54:14.042Z,15.31
2016-08-22T06:55:12.524Z,15.35
2016-08-22T06:56:18.346Z,15.32
2016-08-22T06:57:20.529Z,15.34
2016-08-22T06:59:13.832Z,15.37
2016-08-22T07:01:20.708Z,15.45
2016-08-22T07:02:13.859Z,15.43
2016-08-22T07:03:32.462Z,15.49
2016-08-22T07:04:18.978Z,15.59
2016-08-22T07:05:12.446Z,15.65
2016-08-22T07:06:17.713Z,15.67
2016-08-22T07:07:16.771Z,15.71
2016-08-22T07:08:12.332Z,15.76
2016-08-22T07:12:11.628Z,15.63
2016-08-22T07:14:17.329Z,15.74
2016-08-22T07:15:13.963Z,15.80
2016-08-22T07:16:23.235Z,15.87
2016-08-22T07:17:18.957Z,15.88
2016-08-22T07:18:20.208Z,15.91
2016-08-22T07:19:19.335Z,15.95
2016-08-22T07:20:23.407Z,15.93
2016-08-22T07:22:14.304Z,15.94
2016-08-22T07:23:17.949Z,15.93
2016-08-22T07:24:17.501Z,15.96
2016-08-22T07:25:21.935Z,15.93
2016-08-22T07:26:14.600Z,15.97
2016-08-22T07:27:12.445Z,15.99
2016-08-22T07:28:27.691Z,16.02
2016-08-22T07:29:12.282Z,16.12
2016-08-22T07:30:17.570Z,16.18
2016-08-22T07:32:17.770Z,16.14
2016-08-22T07:33:22.624Z,16.06
2016-08-22T07:35:26.022Z,16.16
2016-08-22T07:36:30.785Z,16.10
2016-08-22T07:37:22.814Z,16.07
2016-08-22T07:38:18.821Z,16.11
2016-08-22T07:40:23.296Z,16.14
2016-08-22T07:41:21.902Z,16.21
2016-08-22T07:42:23.101Z,16.22
2016-08-22T07:43:19.047Z,16.25
2016-08-22T07:44:20.056Z,16.28
2016-08-22T07:45:18.669Z,16.17
2016-08-22T07:46:17.160Z,16.16
2016-08-22T07:47:16.556Z,16.19
2016-08-22T07:48:21.714Z,16.31
2016-08-22T07:49:18.491Z,16.28
2016-08-22T07:50:28.094Z,16.19
2016-08-22T07:51:19.612Z,16.28
2016-08-22T07:52:17.890Z,16.24
2016-08-22T07:53:22.114Z,16.26
2016-08-22T07:55:14.239Z,16.39
2016-08-22T07:56:15.580Z,16.47
2016-08-22T07:57:12.783Z,16.43
2016-08-22T07:58:14.002Z,16.18
2016-08-22T07:59:13.525Z,16.25
2016-08-22T08:00:19.416Z,16.39
2016-08-22T08:02:18.454Z,16.44
2016-08-22T08:03:12.610Z,16.32
2016-08-22T08:08:20.559Z,16.27
2016-08-22T08:11:28.642Z,16.17
2016-08-22T08:14:16.613Z,16.39
2016-08-22T08:16:20.161Z,16.64
2016-08-22T08:17:16.202Z,16.72
2016-08-22T08:19:30.905Z,16.72
2016-08-22T08:21:21.061Z,16.85
2016-08-22T08:22:22.312Z,16.75
2016-08-22T08:24:19.673Z,16.89
2016-08-22T08:25:18.833Z,16.90
2016-08-22T08:26:17.644Z,16.94
2016-08-22T08:27:21.743Z,16.95
2016-08-22T08:28:27.776Z,16.95
2016-08-22T08:29:16.653Z,16.94
2016-08-22T08:30:17.536Z,16.79
2016-08-22T08:31:47.071Z,16.68
2016-08-22T08:32:15.500Z,16.68
2016-08-22T08:34:12.715Z,16.71
2016-08-22T08:35:21.345Z,16.65
2016-08-22T08:36:20.096Z,16.59
2016-08-22T08:38:16.189Z,16.58
2016-08-22T08:39:13.790Z,16.59
2016-08-22T08:40:19.829Z,16.64
2016-08-22T08:41:11.567Z,16.75
2016-08-22T08:42:36.740Z,16.84
2016-08-22T08:43:11.659Z,16.87
2016-08-22T08:46:16.611Z,16.74
2016-08-22T08:47:12.147Z,16.69
2016-08-22T08:48:12.714Z,16.83
2016-08-22T08:49:22.341Z,16.81
2016-08-22T08:50:16.349Z,16.82
2016-08-22T08:51:12.632Z,16.90
2016-08-22T08:54:18.554Z,16.98
2016-08-22T08:55:19.447Z,17.00
2016-08-22T08:56:13.606Z,17.09
2016-08-22T08:57:17.790Z,17.10
2016-08-22T08:58:16.455Z,17.14
2016-08-22T09:00:22.794Z,17.14
2016-08-22T09:01:26.032Z,17.13
2016-08-22T09:02:20.227Z,17.17
2016-08-22T09:04:17.263Z,17.30
2016-08-22T09:09:13.636Z,17.26
2016-08-22T09:10:22.408Z,17.26
2016-08-22T09:11:17.427Z,17.30
2016-08-22T09:14:14.379Z,17.26
2016-08-22T09:15:17.105Z,17.32
2016-08-22T09:17:22.995Z,17.18
2016-08-22T09:18:12.689Z,17.24
2016-08-22T09:19:20.849Z,17.21
2016-08-22T09:20:22.173Z,17.19
2016-08-22T09:23:20.928Z,17.57
2016-08-22T09:25:23.383Z,17.29
2016-08-22T09:27:25.241Z,17.49
2016-08-22T09:28:18.292Z,17.54
2016-08-22T09:29:32.162Z,17.60
2016-08-22T09:30:12.673Z,17.59
2016-08-22T09:31:16.961Z,17.64
2016-08-22T09:32:17.904Z,17.71
2016-08-22T09:33:14.243Z,17.86
2016-08-22T09:34:21.838Z,17.77
2016-08-22T09:36:14.147Z,17.86
2016-08-22T09:37:23.377Z,17.93
2016-08-22T09:40:16.795Z,18.11
2016-08-22T09:41:11.687Z,18.09
2016-08-22T09:42:12.463Z,18.07
2016-08-22T09:43:17.280Z,18.08
2016-08-22T09:44:18.687Z,18.16
2016-08-22T09:45:22.844Z,18.13
2016-08-22T09:46:19.793Z,18.03
2016-08-22T09:48:18.660Z,17.94
2016-08-22T09:49:17.137Z,17.95
2016-08-22T09:50:29.102Z,17.70
2016-08-22T09:51:22.812Z,17.74
2016-08-22T09:52:13.329Z,17.89
2016-08-22T09:54:18.937Z,17.90
2016-08-22T09:55:19.109Z,17.91
2016-08-22T09:57:12.646Z,17.81
2016-08-22T09:58:17.518Z,17.76
2016-08-22T09:59:22.607Z,17.61
2016-08-22T10:00:21.521Z,17.59
2016-08-22T10:01:19.548Z,17.57
2016-08-22T10:02:14.650Z,17.58
2016-08-22T10:03:19.211Z,17.48
2016-08-22T10:06:12.291Z,17.65
2016-08-22T10:07:21.432Z,17.68
2016-08-22T10:11:19.017Z,17.99
2016-08-22T10:12:15.986Z,18.16
2016-08-22T10:15:12.106Z,18.37
2016-08-22T10:16:15.370Z,18.55
2016-08-22T10:19:19.376Z,18.60
2016-08-22T10:22:16.177Z,18.53
2016-08-22T10:25:14.807Z,18.51
2016-08-22T10:26:14.331Z,18.46
2016-08-22T10:27:18.444Z,18.42
2016-08-22T10:30:16.971Z,18.14
2016-08-22T10:31:14.509Z,17.98
2016-08-22T10:32:20.979Z,17.98
2016-08-22T10:33:14.445Z,17.92
2016-08-22T10:34:20.874Z,17.87
2016-08-22T10:35:18.949Z,17.88
2016-08-22T10:45:22.155Z,18.58
2016-08-22T10:46:13.099Z,18.57
2016-08-22T10:47:12.269Z,18.57
2016-08-22T10:48:22.602Z,18.56
2016-08-22T10:52:11.794Z,18.44
2016-08-22T10:53:18.913Z,18.35
2016-08-22T10:54:25.341Z,18.33
2016-08-22T10:58:37.078Z,18.08
2016-08-22T11:00:19.241Z,18.08
2016-08-22T11:03:22.901Z,17.98
2016-08-22T11:05:13.806Z,17.95
2016-08-22T11:08:23.188Z,18.16
2016-08-22T11:09:22.820Z,18.14
2016-08-22T11:11:16.745Z,18.42
2016-08-22T11:12:18.422Z,18.50
2016-08-22T11:13:20.764Z,18.55
2016-08-22T11:14:22.377Z,18.62
2016-08-22T11:16:18.440Z,18.80
2016-08-22T11:17:21.637Z,18.78
2016-08-22T11:18:52.904Z,18.83
2016-08-22T11:19:22.783Z,18.95
2016-08-22T11:20:16.608Z,19.00
2016-08-22T11:21:15.518Z,19.04
2016-08-22T11:22:29.774Z,19.16
2016-08-22T11:23:16.830Z,19.08
2016-08-22T11:24:18.106Z,19.11
2016-08-22T11:25:13.454Z,19.26
2016-08-22T11:26:21.811Z,19.26
2016-08-22T11:28:19.396Z,19.27
2016-08-22T11:29:19.002Z,19.05
2016-08-22T11:31:38.130Z,18.95
2016-08-22T11:32:18.127Z,18.86
2016-08-22T11:33:14.612Z,18.83
2016-08-22T11:34:23.612Z,18.73
2016-08-22T11:35:22.877Z,18.72
2016-08-22T11:36:16.454Z,18.77
2016-08-22T11:37:22.109Z,18.65
2016-08-22T11:38:12.656Z,18.64
2016-08-22T11:39:16.573Z,18.58
2016-08-22T11:40:19.129Z,18.60
2016-08-22T11:41:22.396Z,18.65
2016-08-22T11:42:22.688Z,18.76
2016-08-22T11:44:16.866Z,18.80
2016-08-22T11:46:25.788Z,18.91
2016-08-22T11:47:17.855Z,18.91
2016-08-22T11:48:20.954Z,18.97
2016-08-22T11:49:19.219Z,19.04
2016-08-22T11:50:13.343Z,19.11
2016-08-22T11:51:21.760Z,19.13
2016-08-22T11:52:15.862Z,19.08
2016-08-22T11:53:22.946Z,19.09
2016-08-22T11:54:17.862Z,18.94
2016-08-22T11:55:20.291Z,18.97
2016-08-22T11:56:18.522Z,18.99
2016-08-22T11:57:14.405Z,18.97
2016-08-22T11:58:17.516Z,18.99
2016-08-22T11:59:16.893Z,19.01
2016-08-22T12:00:13.437Z,18.99
2016-08-22T12:01:14.143Z,19.10
2016-08-22T12:02:15.191Z,19.23
2016-08-22T12:03:20.997Z,19.33
2016-08-22T12:05:18.003Z,19.53
2016-08-22T12:06:18.294Z,19.56
2016-08-22T12:08:18.160Z,19.39
2016-08-22T12:09:21.595Z,19.14
2016-08-22T12:10:12.154Z,19.16
2016-08-22T12:11:12.671Z,19.08
2016-08-22T12:12:20.820Z,18.98
2016-08-22T12:13:21.151Z,18.94
2016-08-22T12:15:18.096Z,18.85
2016-08-22T12:20:19.636Z,18.71
2016-08-22T12:21:28.166Z,18.70
2016-08-22T12:23:22.706Z,18.67
2016-08-22T12:24:22.266Z,18.62
2016-08-22T12:26:15.838Z,18.62
2016-08-22T12:27:20.685Z,18.61
2016-08-22T12:28:18.764Z,18.68
2016-08-22T12:29:23.080Z,18.78
2016-08-22T12:31:42.306Z,18.92
2016-08-22T12:34:15.598Z,19.21
2016-08-22T12:35:13.216Z,19.34
2016-08-22T12:36:18.530Z,19.41
2016-08-22T12:37:18.078Z,19.40
2016-08-22T12:38:18.594Z,19.48
2016-08-22T12:40:13.138Z,19.19
2016-08-22T12:41:18.247Z,19.10
2016-08-22T12:42:31.016Z,19.08
2016-08-22T12:44:17.797Z,18.98
2016-08-22T12:45:22.447Z,19.06
2016-08-22T12:46:22.590Z,19.20
2016-08-22T12:49:28.368Z,19.69
2016-08-22T12:50:17.400Z,19.55
2016-08-22T12:51:41.411Z,19.63
2016-08-22T12:52:18.220Z,19.69
2016-08-22T12:53:17.574Z,19.71
2016-08-22T12:54:16.285Z,19.78
2016-08-22T12:55:16.390Z,19.93
2016-08-22T12:57:22.906Z,20.00
2016-08-22T12:58:14.672Z,20.12
2016-08-22T13:01:18.582Z,20.49
2016-08-22T13:02:12.257Z,20.45
2016-08-22T13:04:34.339Z,20.64
2016-08-22T13:05:18.398Z,20.67
2016-08-22T13:07:25.281Z,20.76
2016-08-22T13:08:15.319Z,20.84
2016-08-22T13:09:19.990Z,21.05
2016-08-22T13:10:13.517Z,20.76
2016-08-22T13:11:21.010Z,20.62
2016-08-22T13:16:22.044Z,21.73
2016-08-22T13:18:23.402Z,21.86
2016-08-22T13:20:19.599Z,21.86
2016-08-22T13:21:18.214Z,21.75
2016-08-22T13:23:09.920Z,21.59
2016-08-22T13:26:22.870Z,21.71
2016-08-22T13:27:15.449Z,21.71
2016-08-22T13:28:44.268Z,21.66
2016-08-22T13:29:17.440Z,21.71
2016-08-22T13:31:13.144Z,21.65
2016-08-22T13:33:18.692Z,21.48
2016-08-22T13:34:17.066Z,21.55
2016-08-22T13:35:23.143Z,21.46
2016-08-22T13:36:28.351Z,21.48
2016-08-22T13:37:18.380Z,21.61
2016-08-22T13:38:32.105Z,21.62
2016-08-22T13:40:18.127Z,21.45
2016-08-22T13:41:18.005Z,21.48
2016-08-22T13:42:29.033Z,21.61
2016-08-22T13:43:11.811Z,21.70
2016-08-22T13:44:19.243Z,21.66
2016-08-22T13:45:14.840Z,21.58
2016-08-22T13:46:29.703Z,21.58
2016-08-22T13:47:20.818Z,21.63
2016-08-22T13:48:22.931Z,21.56
2016-08-22T13:49:18.578Z,21.59
2016-08-22T13:50:15.373Z,21.48
2016-08-22T13:51:27.882Z,21.68
2016-08-22T13:52:34.865Z,21.74
2016-08-22T13:53:18.358Z,21.85
2016-08-22T13:54:21.945Z,21.82
2016-08-22T13:55:29.589Z,21.99
2016-08-22T13:56:13.503Z,22.08
2016-08-22T13:57:12.071Z,22.10
2016-08-22T13:58:30.765Z,21.93
2016-08-22T13:59:19.636Z,22.05
2016-08-22T14:00:12.853Z,22.11
2016-08-22T14:02:21.908Z,21.87
2016-08-22T14:03:25.695Z,22.09
2016-08-22T14:05:14.762Z,22.17
2016-08-22T14:06:12.848Z,22.20
2016-08-22T14:07:33.478Z,21.56
2016-08-22T14:08:22.078Z,21.41
2016-08-22T14:09:16.697Z,21.20
2016-08-22T14:10:22.923Z,21.36
2016-08-22T14:11:15.070Z,21.39
2016-08-22T14:12:13.428Z,21.47
2016-08-22T14:13:16.229Z,21.60
2016-08-22T14:14:16.951Z,21.73
2016-08-22T14:16:12.244Z,21.59
2016-08-22T14:17:21.593Z,21.58
2016-08-22T14:18:16.305Z,21.71
2016-08-22T14:19:12.778Z,21.64
2016-08-22T14:20:12.602Z,21.61
2016-08-22T14:21:18.518Z,21.65
2016-08-22T14:23:21.768Z,21.70
2016-08-22T14:24:27.948Z,21.61
2016-08-22T14:25:29.457Z,21.55
2016-08-22T14:26:14.442Z,21.52
2016-08-22T14:27:12.926Z,21.46
2016-08-22T14:28:20.497Z,21.38
2016-08-22T14:29:20.650Z,21.26
2016-08-22T14:30:13.140Z,21.28
2016-08-22T14:31:13.952Z,21.36
2016-08-22T14:32:23.386Z,21.40
2016-08-22T14:33:15.883Z,21.52
2016-08-22T14:34:13.860Z,21.56
2016-08-22T14:35:22.410Z,21.53
2016-08-22T14:36:18.577Z,21.46
2016-08-22T14:37:21.586Z,21.31
2016-08-22T14:38:14.208Z,21.30
2016-08-22T14:39:27.823Z,21.43
2016-08-22T14:40:13.290Z,21.50
2016-08-22T14:41:32.532Z,21.51
2016-08-22T14:42:22.666Z,21.50
2016-08-22T14:43:22.906Z,21.50
2016-08-22T14:44:28.074Z,21.49
2016-08-22T14:45:15.009Z,21.49
2016-08-22T14:46:15.529Z,21.56
2016-08-22T14:47:12.676Z,21.64
2016-08-22T14:48:25.026Z,21.67
2016-08-22T14:49:14.482Z,21.63
2016-08-22T14:50:29.443Z,21.68
2016-08-22T14:51:17.628Z,21.57
2016-08-22T14:53:22.411Z,21.38
2016-08-22T14:54:22.041Z,21.38
2016-08-22T14:55:13.282Z,21.27
2016-08-22T14:56:20.069Z,21.19
2016-08-22T14:57:17.264Z,21.24
2016-08-22T14:58:22.278Z,21.32
2016-08-22T14:59:16.015Z,21.40
2016-08-22T15:00:21.675Z,21.57
2016-08-22T15:01:12.287Z,21.65
2016-08-22T15:02:15.332Z,21.73
2016-08-22T15:03:22.495Z,21.73
2016-08-22T15:04:12.402Z,21.73
2016-08-22T15:05:14.736Z,21.62
2016-08-22T15:06:18.141Z,21.80
2016-08-22T15:07:19.329Z,22.08
2016-08-22T15:08:18.679Z,22.14
2016-08-22T15:09:18.971Z,21.78
2016-08-22T15:10:16.226Z,21.57
2016-08-22T15:11:22.629Z,21.62
2016-08-22T15:12:19.756Z,21.56
2016-08-22T15:13:33.490Z,21.51
2016-08-22T15:14:12.814Z,21.47
2016-08-22T15:15:18.734Z,21.56
2016-08-22T15:16:20.970Z,21.62
2016-08-22T15:17:13.180Z,21.61
2016-08-22T15:18:31.277Z,21.68
2016-08-22T15:19:17.762Z,21.69
2016-08-22T15:20:23.583Z,21.72
2016-08-22T15:21:21.602Z,21.73
2016-08-22T15:22:18.220Z,21.76
2016-08-22T15:23:18.308Z,21.76
2016-08-22T15:25:33.938Z,21.73
2016-08-22T15:26:23.037Z,21.76
2016-08-22T15:27:12.657Z,21.68
2016-08-22T15:28:14.722Z,21.62
2016-08-22T15:30:21.016Z,21.80
2016-08-22T15:32:29.458Z,21.78
2016-08-22T15:33:22.551Z,21.75
2016-08-22T15:34:22.491Z,21.82
2016-08-22T15:35:13.572Z,21.81
2016-08-22T15:36:22.335Z,21.72
2016-08-22T15:37:22.000Z,21.95
2016-08-22T15:38:22.984Z,22.08
2016-08-22T15:39:13.162Z,21.99
2016-08-22T15:40:12.248Z,21.70
2016-08-22T15:42:12.376Z,21.50
2016-08-22T15:43:15.948Z,21.27
2016-08-22T15:44:16.522Z,21.41
2016-08-22T15:45:17.515Z,21.90
2016-08-22T15:46:12.639Z,22.12
2016-08-22T15:47:22.995Z,23.09
2016-08-22T15:48:21.198Z,23.38
2016-08-22T15:49:13.310Z,24.50
2016-08-22T15:50:18.064Z,24.80
2016-08-22T15:51:14.271Z,25.00
2016-08-22T15:52:12.293Z,25.17
2016-08-22T15:53:15.680Z,26.50
2016-08-22T15:54:19.920Z,26.78
2016-08-22T15:55:12.419Z,28.20
2016-08-22T15:56:12.843Z,28.48
2016-08-22T15:57:21.965Z,28.89
2016-08-22T15:59:16.838Z,28.69
2016-08-22T16:00:13.345Z,29.17
2016-08-22T16:01:15.757Z,29.37
2016-08-22T16:02:16.019Z,29.12
2016-08-22T16:03:12.173Z,29.65
2016-08-22T16:04:13.047Z,29.92
2016-08-22T16:06:18.232Z,29.39
2016-08-22T16:08:17.874Z,29.17
2016-08-22T16:09:13.787Z,29.21
2016-08-22T16:10:14.318Z,29.57
2016-08-22T16:11:12.011Z,30.06
2016-08-22T16:12:13.477Z,30.38
2016-08-22T16:14:15.677Z,31.30
2016-08-22T16:15:11.056Z,30.59
2016-08-22T16:16:24.542Z,27.79
2016-08-22T16:17:13.918Z,26.19
2016-08-22T16:18:12.374Z,25.12
2016-08-22T16:19:10.673Z,24.64
2016-08-22T16:20:18.845Z,23.98
2016-08-22T16:21:13.572Z,23.24
2016-08-22T16:22:16.852Z,22.65
2016-08-22T16:23:12.582Z,22.68
2016-08-22T16:24:11.732Z,24.70
2016-08-22T16:25:12.985Z,26.18
2016-08-22T16:26:19.794Z,26.79
2016-08-22T16:27:11.725Z,26.75
2016-08-22T16:28:12.574Z,25.98
2016-08-22T16:29:12.723Z,24.81
2016-08-22T16:30:13.658Z,23.84
2016-08-22T16:31:36.899Z,23.20
2016-08-22T16:32:17.802Z,22.60
2016-08-22T16:33:12.392Z,22.32
2016-08-22T16:34:13.427Z,22.29
2016-08-22T16:35:14.927Z,22.29
2016-08-22T16:36:14.308Z,22.19
2016-08-22T16:37:17.551Z,22.03
2016-08-22T16:38:12.999Z,22.06
2016-08-22T16:39:21.306Z,21.96
2016-08-22T16:40:12.960Z,22.00
2016-08-22T16:41:12.041Z,21.89
2016-08-22T16:42:15.328Z,21.71
2016-08-22T16:43:17.026Z,21.69
2016-08-22T16:44:13.015Z,21.56
2016-08-22T16:45:20.721Z,21.43
2016-08-22T16:46:12.946Z,21.42
2016-08-22T16:47:22.748Z,21.31
2016-08-22T16:48:18.905Z,21.38
2016-08-22T16:49:22.664Z,21.44
2016-08-22T16:50:17.490Z,21.30
2016-08-22T16:51:17.225Z,21.25
2016-08-22T16:52:15.058Z,21.23
2016-08-22T16:53:14.446Z,21.22
2016-08-22T16:54:38.457Z,21.20
2016-08-22T16:55:12.131Z,21.07
2016-08-22T16:56:18.381Z,21.02
2016-08-22T16:57:16.689Z,20.96
2016-08-22T16:58:17.880Z,20.96
2016-08-22T16:59:22.062Z,20.97
2016-08-22T17:02:24.043Z,20.93
2016-08-22T17:03:14.088Z,20.90
2016-08-22T17:04:10.587Z,20.85
2016-08-22T17:05:42.543Z,20.83
2016-08-22T17:06:11.931Z,20.72
2016-08-22T17:07:11.667Z,20.65
2016-08-22T17:08:20.472Z,20.69
2016-08-22T17:09:54.463Z,20.64
2016-08-22T17:10:17.226Z,20.53